createdAt,value
2023-04-24T00:02:51.636Z,1.87
2023-04-24T00:17:56.583Z,2.13
2023-04-24T00:33:01.121Z,2.50
2023-04-24T00:48:06.666Z,2.57
2023-04-24T01:03:12.111Z,2.60
2023-04-24T01:18:17.077Z,3.30
2023-04-24T01:33:24.563Z,2.60
2023-04-24T01:48:29.603Z,3.17
2023-04-24T02:03:34.382Z,2.90
2023-04-24T02:18:39.039Z,3.60
2023-04-24T02:33:43.515Z,2.40
2023-04-24T02:48:47.997Z,2.70
2023-04-24T03:03:52.577Z,2.73
2023-04-24T03:18:57.296Z,2.53
2023-04-24T03:34:04.510Z,3.20
2023-04-24T03:49:09.926Z,2.80
2023-04-24T04:04:19.023Z,2.97
2023-04-24T04:19:23.930Z,3.53
2023-04-24T04:34:30.712Z,2.63
2023-04-24T04:49:35.742Z,3.50
2023-04-24T05:04:41.562Z,3.50
2023-04-24T05:19:47.377Z,4.40
2023-04-24T05:34:53.333Z,4.10
2023-04-24T05:49:57.913Z,4.43
2023-04-24T06:05:02.871Z,4.23
2023-04-24T06:20:09.787Z,4.47
2023-04-24T06:35:14.290Z,5.27
2023-04-24T06:50:18.798Z,5.63
2023-04-24T07:05:24.261Z,6.30
2023-04-24T07:20:28.755Z,6.17
2023-04-24T07:35:33.348Z,6.30
2023-04-24T07:50:37.916Z,6.83
2023-04-24T08:05:44.067Z,7.43
2023-04-24T08:20:48.872Z,8.90
2023-04-24T08:35:53.393Z,8.07
2023-04-24T08:50:59.193Z,8.37
2023-04-24T09:06:04.414Z,8.43
2023-04-24T09:21:11.708Z,6.27
2023-04-24T09:36:19.873Z,7.27
2023-04-24T09:51:35.920Z,7.70
2023-04-24T10:06:40.350Z,8.37
2023-04-24T10:21:47.516Z,6.60
2023-04-24T10:36:57.259Z,6.70
2023-04-24T10:52:06.544Z,5.50
2023-04-24T11:07:11.429Z,6.47
2023-04-24T11:22:21.431Z,4.83
2023-04-24T11:37:28.337Z,5.60
2023-04-24T11:52:33.711Z,6.00
2023-04-24T12:07:44.773Z,3.67
2023-04-24T12:22:54.718Z,4.27
2023-04-24T12:38:08.253Z,3.27
2023-04-24T12:53:12.707Z,2.00
2023-04-24T13:08:17.185Z,1.90
2023-04-24T13:23:21.628Z,2.67
2023-04-24T13:38:26.070Z,1.90
2023-04-24T13:53:30.514Z,2.03
2023-04-24T14:08:34.957Z,1.70
2023-04-24T14:23:39.431Z,1.60
2023-04-24T14:38:43.880Z,0.80
2023-04-24T14:53:48.772Z,1.77
2023-04-24T15:08:53.268Z,1.87
2023-04-24T15:23:57.697Z,0.80
2023-04-24T15:39:05.270Z,0.93
2023-04-24T15:54:11.103Z,2.00
2023-04-24T16:09:16.015Z,1.00
2023-04-24T16:24:21.298Z,1.50
2023-04-24T16:39:26.872Z,2.40
2023-04-24T16:54:34.582Z,1.33
2023-04-24T17:09:39.064Z,2.07
2023-04-24T17:24:43.522Z,2.10
2023-04-24T17:39:48.004Z,2.10
2023-04-24T17:54:52.421Z,1.87
2023-04-24T18:09:56.905Z,1.77
2023-04-24T18:25:01.636Z,2.67
2023-04-24T18:40:06.948Z,3.03
2023-04-24T18:55:11.906Z,2.70
2023-04-24T19:10:16.695Z,2.40
2023-04-24T19:25:22.167Z,3.23
2023-04-24T19:40:26.588Z,3.87
2023-04-24T19:55:31.363Z,2.77
2023-04-24T20:10:37.715Z,3.37
2023-04-24T20:25:42.184Z,3.53
2023-04-24T20:40:57.292Z,4.60
2023-04-24T20:56:02.950Z,5.17
2023-04-24T21:11:07.513Z,3.27
2023-04-24T21:26:12.295Z,2.83
2023-04-24T21:41:16.739Z,3.70
2023-04-24T21:56:21.363Z,3.63
2023-04-24T22:11:27.156Z,3.83
2023-04-24T22:26:31.785Z,3.20
2023-04-24T22:41:36.280Z,3.20
2023-04-24T22:56:40.861Z,2.77
2023-04-24T23:11:45.931Z,3.23
2023-04-24T23:26:50.442Z,3.20
2023-04-24T23:41:56.083Z,2.57
2023-04-24T23:57:00.678Z,2.23
